Terminal Aerodrome Forecast
Issued by NWS Shreveport, LA

Home | Current Version | Previous Version | Text Only | Print | Product List | Glossary On
Versions: 1 2 3 4 5 6 7 8 9 10 11 12 13 14 15
000
FTUS44 KSHV 041537 AAA
TAFTYR
TAF AMD
KTYR 041537Z 0416/0512 20006KT P6SM BKN025 BKN070
      TEMPO 0417/0418 SCT035 BKN045
     FM041800 17007KT P6SM SCT040 BKN080
     FM050000 15006KT P6SM BKN050 BKN070
     FM050300 14005KT P6SM VCSH BKN040 OVC070
     FM050600 16005KT P6SM SCT070=

USA.gov is the U.S. government's official web portal to all federal, state and local government web resources and services.